Flight Track Log - Related Links

Times and Time Zones

All times are in EST time to prevent confusion due to time zone crossing. See the EJA583 flight status page for this flight to view local times or setup timezone preferences in your user account.

Time Position Orientation Groundspeed Altitude Reporting Facility
EST Latitude Longitude Course Direction KTS MPH feet Rate Location/Type
Tue 08:12:00 AM 27.9833 -82.5333 355° North 174 200 700  Level Tampa TRACON
Tue 08:13:54 AM 28.0972 -82.5444 355° North 243 280 5,100 2,690 Climbing Jacksonville Center
Tue 08:14:54 AM 28.1706 -82.5817 336° Northwest 263 303 8,500 3,150 Climbing Jacksonville Center
Tue 08:15:54 AM 28.2456 -82.6264 332° Northwest 281 323 11,400 2,500 Climbing Jacksonville Center
Tue 08:16:54 AM 28.3250 -82.6686 335° Northwest 297 342 13,500 2,150 Climbing Jacksonville Center
Tue 08:17:54 AM 28.4064 -82.7156 333° Northwest 314 361 15,700 1,950 Climbing Jacksonville Center
Tue 08:18:54 AM 28.4881 -82.7628 333° Northwest 325 374 17,400 1,450 Climbing Jacksonville Center
Tue 08:19:54 AM 28.5778 -82.8169 332° Northwest 339 390 18,600 1,600 Climbing Jacksonville Center
Tue 08:20:54 AM 28.6675 -82.8736 331° Northwest 357 411 20,600 1,800 Climbing Jacksonville Center
Tue 08:21:54 AM 28.7508 -82.9353 327° Northwest 357 411 22,200 1,500 Climbing Jacksonville Center
Tue 08:22:54 AM 28.8406 -82.9969 329° Northwest 367 422 23,600 1,550 Climbing Jacksonville Center
Tue 08:23:54 AM 28.9303 -83.0586 329° Northwest 374 430 25,300 1,450 Climbing Jacksonville Center
Tue 08:24:54 AM 29.0219 -83.1228 329° Northwest 379 436 26,500 1,100 Climbing Jacksonville Center
Tue 08:25:54 AM 29.1139 -83.1850 329° Northwest 379 436 27,500 900 Climbing Jacksonville Center
Tue 08:26:54 AM 29.2033 -83.2567 325° Northwest 384 442 28,300 1,050 Climbing Jacksonville Center
Tue 08:27:54 AM 29.2969 -83.3283 326° Northwest 395 455 29,600 1,800 Climbing Jacksonville Center
Tue 08:28:54 AM 29.3867 -83.3956 327° Northwest 395 455 31,900 1,650 Climbing Jacksonville Center
Tue 08:29:54 AM 29.4803 -83.4700 325° Northwest 382 440 32,900 1,200 Climbing Jacksonville Center
Tue 08:30:54 AM 29.5633 -83.5372 325° Northwest 377 434 34,300 1,300 Climbing Jacksonville Center
Tue 08:31:54 AM 29.6486 -83.6022 326° Northwest 377 434 35,500 1,150 Climbing Jacksonville Center
Tue 08:32:54 AM 29.7339 -83.6675 326° Northwest 371 427 36,600 1,200 Climbing Jacksonville Center
Tue 08:33:54 AM 29.8211 -83.7353 326° Northwest 376 433 37,900 700 Climbing Jacksonville Center
Tue 08:34:54 AM 29.9103 -83.8056 326° Northwest 381 438 38,000 50 Climbing Jacksonville Center
Tue 08:35:54 AM 30.0081 -83.8808 326° Northwest 393 452 38,000  Level Jacksonville Center
Tue 08:36:54 AM 30.1033 -83.9561 326° Northwest 405 466 38,000  Level Jacksonville Center
Tue 08:37:54 AM 30.1967 -84.0317 325° Northwest 415 478 38,000  Level Jacksonville Center
Tue 08:38:54 AM 30.2919 -84.1050 326° Northwest 415 478 38,000  Level Jacksonville Center
Tue 08:39:54 AM 30.3853 -84.1786 326° Northwest 415 478 38,000  Level Jacksonville Center
Tue 08:40:54 AM 30.4661 -84.2397 327° Northwest 408 470 38,000  Level Jacksonville Center
Tue 08:41:54 AM 30.5675 -84.3233 325° Northwest 402 463 38,000  Level Jacksonville Center
Tue 08:42:54 AM 30.6461 -84.3872 325° Northwest 397 457 38,000  Level Jacksonville Center
Tue 08:43:54 AM 30.7369 -84.4611 325° Northwest 397 457 38,000  Level Jacksonville Center
Tue 08:44:54 AM 30.8281 -84.5328 326° Northwest 397 457 38,000  Level Jacksonville Center
Tue 08:47:21 AM 31.0622 -84.7200 326° Northwest 408 470 38,000  Level Atlanta Center
Tue 08:48:21 AM 31.1536 -84.7958 325° Northwest 403 464 38,000  Level Atlanta Center
Tue 08:49:21 AM 31.2472 -84.8719 325° Northwest 403 464 38,000  Level Atlanta Center
Tue 08:50:21 AM 31.3383 -84.9433 326° Northwest 403 464 38,000  Level Atlanta Center
Tue 08:51:21 AM 31.4275 -85.0194 324° Northwest 403 464 38,000  Level Atlanta Center
Tue 08:52:21 AM 31.5125 -85.0886 325° Northwest 403 464 38,000  Level Atlanta Center
Tue 08:53:21 AM 31.6100 -85.1653 326° Northwest 403 464 38,000  Level Atlanta Center
Tue 08:54:21 AM 31.6992 -85.2397 325° Northwest 403 464 38,000  Level Atlanta Center
Tue 08:55:21 AM 31.7903 -85.3142 325° Northwest 403 464 38,000  Level Atlanta Center
Tue 08:56:21 AM 31.8792 -85.3864 325° Northwest 398 458 38,000  Level Atlanta Center
Tue 08:57:21 AM 31.9700 -85.4614 325° Northwest 398 458 38,000  Level Atlanta Center
Tue 08:58:21 AM 32.0592 -85.5314 326° Northwest 398 458 38,000  Level Atlanta Center
Tue 08:59:20 AM 32.1478 -85.6064 324° Northwest 398 458 38,000  Level Atlanta Center
Tue 09:00:20 AM 32.2389 -85.6792 326° Northwest 393 452 38,000  Level Atlanta Center
Tue 09:01:21 AM 32.3275 -85.7544 324° Northwest 393 452 38,000  Level Atlanta Center
Tue 09:02:21 AM 32.4058 -85.8250 323° Northwest 398 458 38,000  Level Atlanta Center
Tue 09:03:21 AM 32.4922 -85.9031 323° Northwest 398 458 38,000  Level Atlanta Center
Tue 09:04:21 AM 32.5894 -85.9717 329° Northwest 398 458 38,000  Level Atlanta Center
Tue 09:05:21 AM 32.6778 -86.0475 324° Northwest 398 458 38,000  Level Atlanta Center
Tue 09:06:21 AM 32.7664 -86.1236 324° Northwest 398 458 38,000  Level Atlanta Center
Tue 09:07:21 AM 32.8569 -86.2025 324° Northwest 404 465 38,000  Level Atlanta Center
Tue 09:08:21 AM 32.9475 -86.2767 326° Northwest 404 465 38,000  Level Atlanta Center
Tue 09:09:21 AM 33.0378 -86.3533 325° Northwest 398 458 38,000  Level Atlanta Center
Tue 09:10:21 AM 33.1281 -86.4300 325° Northwest 403 464 38,000  Level Atlanta Center
Tue 09:11:21 AM 33.2186 -86.5069 325° Northwest 398 458 38,000  Level Atlanta Center
Tue 09:12:21 AM 33.3150 -86.5917 324° Northwest 398 458 38,000  Level Atlanta Center
Tue 09:13:33 AM 33.4236 -86.6844 325° Northwest 398 458 38,000  Level Atlanta Center
Tue 09:14:33 AM 33.5117 -86.7644 323° Northwest 398 458 38,000  Level Atlanta Center
Tue 09:15:33 AM 33.6036 -86.8422 325° Northwest 404 465 38,000  Level Atlanta Center
Tue 09:16:33 AM 33.6831 -86.9297 318° Northwest 404 465 38,000  Level Atlanta Center
Tue 09:17:33 AM 33.7367 -87.0414 300° West 387 445 38,000  Level Atlanta Center
Tue 09:18:33 AM 33.7883 -87.1506 300° West 387 445 38,000  Level Atlanta Center
Tue 09:20:47 AM 33.9078 -87.3989 300° West 394 453 38,000  Level Memphis Center
Tue 09:21:47 AM 33.9628 -87.5122 300° West 386 444 38,000  Level Memphis Center
Tue 09:22:47 AM 34.0108 -87.6108 300° West 386 444 38,000 -350 Level Memphis Center
Tue 09:23:47 AM 34.0611 -87.7194 299° West 380 437 37,300 -1,100 Descending Memphis Center
Tue 09:24:47 AM 34.1114 -87.8283 299° West 374 430 35,800 -1,500 Descending Memphis Center
Tue 09:25:47 AM 34.1594 -87.9350 299° West 369 425 34,300 -1,500 Descending Memphis Center
Tue 09:26:47 AM 34.2075 -88.0467 298° West 369 425 32,800 -1,450 Descending Memphis Center
Tue 09:27:47 AM 34.2553 -88.1558 298° West 369 425 31,400 -1,500 Descending Memphis Center
Tue 09:28:47 AM 34.3056 -88.2828 296° West 382 440 29,800 -1,550 Descending Memphis Center
Tue 09:29:47 AM 34.3533 -88.3972 297° West 376 433 28,300 -1,750 Descending Memphis Center
Tue 09:30:47 AM 34.4031 -88.5119 298° West 381 438 26,300 -2,250 Descending Memphis Center
Tue 09:31:47 AM 34.4547 -88.6292 298° West 381 438 23,800 -2,550 Descending Memphis Center
Tue 09:32:47 AM 34.5022 -88.7467 296° West 386 444 21,200 -2,500 Descending Memphis Center
Tue 09:33:47 AM 34.5497 -88.8567 298° West 378 435 18,800 -2,250 Descending Memphis Center
Tue 09:34:47 AM 34.5947 -88.9669 296° West 366 421 16,700 -2,400 Descending Memphis Center
Tue 09:35:47 AM 34.6397 -89.0722 297° West 359 413 14,000 -2,550 Descending Memphis Center
Tue 09:36:47 AM 34.6825 -89.1753 297° West 354 407 11,600 -1,850 Descending Memphis Center
Tue 09:37:47 AM 34.7189 -89.2706 295° West 342 394 10,300 -700 Descending Memphis Center
Tue 09:38:47 AM 34.7383 -89.3539 286° West 302 348 10,200 -150 Descending Memphis Center
Tue 09:39:47 AM 34.7578 -89.4497 284° West 291 335 10,000 -100 Descending Memphis Center
Tue 09:40:47 AM 34.7917 -89.5378 295° West 291 335 10,000  Level Memphis Center
Tue 09:41:47 AM 34.8361 -89.6258 302° West 291 335 10,000  Level Memphis Center
Tue 09:42:47 AM 34.8806 -89.7089 303° West 301 346 10,000  Level Memphis Center
Tue 09:43:47 AM 34.9289 -89.8100 300° West 306 352 10,000 -400 Level Memphis Center
Tue 09:44:47 AM 34.9772 -89.8756 312° West 299 344 9,200 -1,150 Descending Memphis Center
Tue 09:45:47 AM 35.0522 -89.8828 355° North 265 305 7,700 -1,500 Descending Memphis Center
Tue 09:46:47 AM 35.1233 -89.8822 360° North 257 296 6,200 -1,350 Descending Memphis Center
Tue 09:47:47 AM 35.1900 -89.8844 358° North 245 282 5,000 -600 Descending Memphis Center
Tue 09:48:47 AM 35.2567 -89.8867 358° North 239 275 5,000 -700 Level Memphis Center
Tue 09:49:47 AM 35.3297 -89.8889 359° North 239 275 3,600 -1,000 Descending Memphis Center
Tue 09:50:47 AM 35.4008 -89.8908 359° North 239 275 3,000 -148 Descending Memphis Center
Tue 09:53:10 AM 35.4000 -89.9833 269° West 166 191 3,100 31 Climbing KMEM
Tue 09:53:58 AM 35.3667 -89.9833 180° South 170 196 3,100  Level KMEM
Tue 09:55:04 AM 35.3167 -89.9833 180° South 157 181 3,100  Level KMEM
Tue 09:56:04 AM 35.2667 -89.9833 180° South 152 175 3,100  Level KMEM
Tue 09:57:04 AM 35.2333 -89.9667 158° South 144 166 3,100  Level KMEM
Tue 09:58:04 AM 35.2000 -89.9667 180° South 150 173 3,100 -381 Level KMEM
Tue 09:59:10 AM 35.1500 -89.9667 180° South 157 181 2,300 -762 Descending KMEM
Tue 10:00:10 AM 35.1000 -89.9667 180° South 144 166 1,500 -778 Descending KMEM
Tue 10:00:58 AM 35.0833 -89.9667 180° South 139 160 900 -750 Descending KMEM

Login

Don't have an account? Register now (free) for customized features, flight alerts, and more!